Richards, Iowa
Current Conditions -  °F | °C
As of 3:35 PM on Monday 24 Nov 2014 (Local Time) from KCIN Reporting Station
Overcast Overcast  
Wind Chill: 11°   Ceiling: 2100
Heat Index: 27°   Visibility: 10mi
Dew Point: 18°   Wind: 29mph
Humidity: 69%   Direction: 300°WNW
Pressure: 29.76"   Gusts: 36mph
Location:  42.385°N, 94.6304°W
Report Text: KCIN 242135Z AUTO 30025G31KT 10SM OVC021 M03/M08 A2976 RMK AO2
Loading
Personal Weather Stations






























Interactive Weather Map New forecast layout! Learn more

10-Day Weather Forecast

Advertisements
Track Severe Weather on mobile